Lucas, Mississippi
Current Conditions -  °F | °C
As of 8:35 AM on Saturday 20 Dec 2014 (Local Time) from KPIB Reporting Station
Overcast Overcast  
Wind Chill: 39°   Ceiling: 600
Heat Index: 45°   Visibility: 6mi
Dew Point: 41°   Wind: 10mph
Humidity: 87%   Direction: 30°NNE
Pressure: 30.2"   Gusts: 16mph
Location:  31.5969°N, 89.8752°W
Report Text: KPIB 201435Z AUTO 03009G14KT 6SM OVC006 07/05 A3020 RMK AO1
Loading
Personal Weather Stations






























Interactive Weather Map New forecast layout! Learn more

10-Day Weather Forecast

Advertisements
Track Severe Weather on mobile